createdAt,value
2022-09-18T00:02:26.313Z,12.43
2022-09-18T00:04:53.685Z,13.02
2022-09-18T00:07:20.601Z,11.32
2022-09-18T00:09:47.748Z,12.68
2022-09-18T00:12:14.650Z,13.40
2022-09-18T00:14:41.592Z,13.25
2022-09-18T00:17:09.354Z,12.23
2022-09-18T00:19:36.319Z,12.60
2022-09-18T00:22:03.076Z,12.57
2022-09-18T00:24:30.578Z,12.60
2022-09-18T00:26:57.382Z,12.05
2022-09-18T00:29:24.232Z,12.38
2022-09-18T00:31:51.432Z,13.45
2022-09-18T00:34:18.448Z,12.18
2022-09-18T00:36:45.590Z,12.82
2022-09-18T00:39:13.064Z,13.10
2022-09-18T00:41:41.811Z,13.45
2022-09-18T00:44:41.970Z,13.27
2022-09-18T00:47:11.973Z,13.90
2022-09-18T00:49:41.667Z,14.60
2022-09-18T00:52:09.104Z,16.13
2022-09-18T00:54:42.896Z,14.82
2022-09-18T00:57:12.911Z,15.70
2022-09-18T00:59:42.748Z,15.60
2022-09-18T01:02:09.723Z,15.10
2022-09-18T01:04:36.615Z,14.60
2022-09-18T01:07:35.668Z,15.02
2022-09-18T01:10:17.756Z,13.60
2022-09-18T01:12:56.054Z,13.98
2022-09-18T01:15:44.775Z,13.65
2022-09-18T01:18:49.444Z,13.00
2022-09-18T01:21:17.816Z,12.77
2022-09-18T01:24:09.151Z,12.85
2022-09-18T01:26:48.117Z,12.65
2022-09-18T01:29:27.221Z,12.75
2022-09-18T01:32:04.675Z,13.48
2022-09-18T01:34:46.912Z,12.93
2022-09-18T01:37:29.035Z,12.35
2022-09-18T01:40:15.304Z,13.02
2022-09-18T01:42:44.942Z,13.25
2022-09-18T01:45:16.645Z,13.13
2022-09-18T01:48:00.235Z,13.18
2022-09-18T01:50:32.248Z,12.95
2022-09-18T01:53:23.837Z,12.63
2022-09-18T01:55:59.748Z,12.65
2022-09-18T01:58:27.399Z,11.90
2022-09-18T02:00:59.082Z,12.18
2022-09-18T02:03:28.345Z,12.00
2022-09-18T02:06:02.582Z,11.48
2022-09-18T02:08:41.757Z,11.55
2022-09-18T02:11:13.007Z,11.10
2022-09-18T02:13:45.328Z,10.90
2022-09-18T02:16:23.358Z,11.80
2022-09-18T02:18:53.731Z,10.50
2022-09-18T02:21:26.647Z,11.02
2022-09-18T02:23:56.083Z,11.52
2022-09-18T02:26:23.728Z,11.85
2022-09-18T02:28:50.928Z,10.85
2022-09-18T02:31:18.316Z,11.57
2022-09-18T02:33:45.363Z,11.88
2022-09-18T02:36:49.850Z,10.65
2022-09-18T02:39:16.820Z,10.50
2022-09-18T02:41:53.147Z,10.85
2022-09-18T02:44:27.057Z,10.63
2022-09-18T02:47:10.876Z,11.15
2022-09-18T02:50:14.721Z,10.70
2022-09-18T02:53:03.293Z,11.57
2022-09-18T02:55:40.925Z,11.50
2022-09-18T02:58:31.057Z,11.23
2022-09-18T03:01:02.007Z,11.50
2022-09-18T03:03:31.845Z,11.20
2022-09-18T03:06:02.991Z,10.38
2022-09-18T03:08:32.659Z,10.90
2022-09-18T03:10:59.546Z,11.32
2022-09-18T03:13:28.352Z,10.90
2022-09-18T03:15:56.076Z,11.30
2022-09-18T03:18:23.790Z,11.32
2022-09-18T03:20:50.921Z,11.55
2022-09-18T03:23:18.057Z,11.10
2022-09-18T03:25:50.286Z,11.48
2022-09-18T03:28:18.387Z,11.25
2022-09-18T03:30:45.858Z,11.75
2022-09-18T03:33:13.791Z,11.55
2022-09-18T03:35:43.819Z,12.35
2022-09-18T03:38:10.742Z,12.40
2022-09-18T03:40:38.584Z,12.68
2022-09-18T03:43:06.781Z,14.77
2022-09-18T03:45:33.721Z,16.67
2022-09-18T03:48:02.341Z,17.05
2022-09-18T03:50:30.058Z,16.38
2022-09-18T03:52:57.045Z,19.17
2022-09-18T03:55:49.871Z,16.70
2022-09-18T03:58:34.793Z,19.63
2022-09-18T04:01:09.063Z,20.58
2022-09-18T04:04:00.962Z,21.70
2022-09-18T04:06:51.479Z,21.13
2022-09-18T04:09:41.332Z,20.88
2022-09-18T04:12:09.482Z,20.80
2022-09-18T04:14:36.496Z,19.75
2022-09-18T04:17:03.551Z,20.77
2022-09-18T04:19:30.990Z,19.58
2022-09-18T04:21:58.535Z,21.02
2022-09-18T04:24:25.475Z,19.85
2022-09-18T04:26:52.597Z,21.67
2022-09-18T04:29:21.820Z,19.90
2022-09-18T04:31:50.223Z,21.45
2022-09-18T04:34:19.865Z,21.63
2022-09-18T04:36:47.674Z,19.40
2022-09-18T04:39:15.054Z,22.17
2022-09-18T04:41:45.450Z,22.02
2022-09-18T04:44:14.184Z,20.80
2022-09-18T04:46:42.442Z,21.17
2022-09-18T04:49:10.892Z,21.83
2022-09-18T04:51:38.489Z,21.45
2022-09-18T04:54:05.722Z,23.25
2022-09-18T04:56:36.438Z,20.67
2022-09-18T04:59:03.813Z,20.73
2022-09-18T05:01:30.922Z,20.73
2022-09-18T05:04:02.013Z,20.40
2022-09-18T05:06:40.272Z,18.48
2022-09-18T05:09:07.321Z,21.50
2022-09-18T05:11:34.113Z,20.52
2022-09-18T05:14:01.157Z,20.70
2022-09-18T05:16:31.654Z,19.50
2022-09-18T05:19:18.064Z,19.58
2022-09-18T05:21:45.257Z,18.90
2022-09-18T05:24:14.122Z,18.63
2022-09-18T05:26:42.035Z,17.60
2022-09-18T05:29:09.082Z,17.83
2022-09-18T05:31:36.047Z,16.85
2022-09-18T05:34:03.070Z,16.65
2022-09-18T05:36:30.071Z,16.65
2022-09-18T05:38:57.088Z,16.23
2022-09-18T05:41:24.810Z,16.05
2022-09-18T05:43:51.871Z,17.17
2022-09-18T05:46:18.959Z,18.02
2022-09-18T05:48:57.590Z,18.38
2022-09-18T05:51:24.464Z,17.27
2022-09-18T05:53:51.292Z,17.13
2022-09-18T05:56:28.083Z,16.65
2022-09-18T05:58:55.724Z,16.25
2022-09-18T06:01:22.809Z,16.40
2022-09-18T06:04:09.597Z,15.50
2022-09-18T06:06:52.051Z,16.70
2022-09-18T06:09:19.173Z,16.17
2022-09-18T06:11:46.056Z,15.85
2022-09-18T06:14:12.929Z,15.18
2022-09-18T06:16:42.444Z,15.07
2022-09-18T06:19:10.401Z,15.02
2022-09-18T06:21:37.359Z,15.80
2022-09-18T06:24:07.040Z,13.27
2022-09-18T06:26:39.786Z,13.52
2022-09-18T06:29:06.834Z,13.38
2022-09-18T06:31:45.310Z,13.63
2022-09-18T06:34:18.119Z,13.63
2022-09-18T06:36:46.465Z,12.32
2022-09-18T06:39:26.186Z,12.60
2022-09-18T06:41:59.858Z,11.68
2022-09-18T06:44:46.448Z,10.35
2022-09-18T06:47:15.280Z,12.73
2022-09-18T06:49:45.218Z,14.13
2022-09-18T06:52:12.072Z,14.95
2022-09-18T06:54:40.488Z,14.68
2022-09-18T06:57:08.158Z,15.40
2022-09-18T06:59:35.032Z,15.25
2022-09-18T07:02:02.199Z,14.65
2022-09-18T07:04:47.499Z,14.40
2022-09-18T07:07:17.270Z,14.85
2022-09-18T07:09:46.928Z,15.32
2022-09-18T07:12:26.900Z,16.92
2022-09-18T07:14:54.181Z,13.75
2022-09-18T07:17:26.162Z,15.65
2022-09-18T07:19:54.848Z,13.82
2022-09-18T07:22:26.831Z,13.15
2022-09-18T07:24:55.106Z,12.85
2022-09-18T07:27:22.405Z,12.48
2022-09-18T07:29:50.689Z,13.38
2022-09-18T07:32:22.601Z,11.90
2022-09-18T07:34:50.013Z,12.40
2022-09-18T07:37:24.564Z,12.38
2022-09-18T07:40:12.887Z,12.35
2022-09-18T07:43:03.432Z,12.77
2022-09-18T07:45:30.925Z,13.65
2022-09-18T07:48:00.935Z,14.50
2022-09-18T07:50:29.952Z,14.40
2022-09-18T07:52:58.967Z,15.00
2022-09-18T07:55:31.605Z,15.15
2022-09-18T07:58:00.983Z,14.85
2022-09-18T08:00:51.423Z,13.20
2022-09-18T08:03:19.929Z,13.13
2022-09-18T08:06:13.369Z,14.18
2022-09-18T08:09:03.397Z,14.77
2022-09-18T08:11:56.168Z,15.35
2022-09-18T08:14:30.654Z,15.77
2022-09-18T08:17:17.065Z,13.38
2022-09-18T08:20:22.341Z,14.68
2022-09-18T08:23:09.630Z,16.40
2022-09-18T08:25:39.802Z,15.65
2022-09-18T08:28:07.828Z,15.35
2022-09-18T08:30:42.575Z,15.25
2022-09-18T08:33:11.403Z,15.13
2022-09-18T08:35:38.482Z,16.65
2022-09-18T08:38:18.009Z,16.85
2022-09-18T08:41:14.175Z,17.60
2022-09-18T08:43:45.174Z,18.15
2022-09-18T08:46:17.169Z,18.08
2022-09-18T08:48:54.865Z,17.08
2022-09-18T08:51:32.627Z,17.33
2022-09-18T08:54:21.272Z,18.13
2022-09-18T08:57:23.392Z,16.50
2022-09-18T09:00:24.540Z,16.90
2022-09-18T09:03:20.707Z,15.70
2022-09-18T09:06:27.169Z,16.77
2022-09-18T09:09:14.242Z,15.48
2022-09-18T09:12:10.056Z,15.52
2022-09-18T09:15:10.972Z,14.10
2022-09-18T09:17:42.378Z,13.82
2022-09-18T09:20:14.960Z,14.40
2022-09-18T09:22:50.453Z,14.02
2022-09-18T09:25:21.784Z,15.23
2022-09-18T09:28:28.322Z,13.82
2022-09-18T09:31:19.403Z,14.38
2022-09-18T09:34:37.349Z,15.43
2022-09-18T09:37:25.154Z,16.63
2022-09-18T09:39:57.805Z,14.65
2022-09-18T09:42:55.866Z,15.05
2022-09-18T09:45:49.900Z,14.50
2022-09-18T09:48:32.977Z,14.48
2022-09-18T09:51:16.775Z,14.55
2022-09-18T09:53:44.349Z,14.70
2022-09-18T09:56:28.939Z,15.50
2022-09-18T09:59:08.553Z,17.08
2022-09-18T10:02:17.924Z,16.52
2022-09-18T10:04:53.855Z,15.55
2022-09-18T10:07:34.372Z,16.48
2022-09-18T10:10:07.280Z,15.45
2022-09-18T10:12:52.128Z,15.20
2022-09-18T10:15:31.086Z,15.13
2022-09-18T10:17:59.919Z,14.38
2022-09-18T10:20:29.134Z,14.35
2022-09-18T10:23:06.596Z,14.45
2022-09-18T10:25:51.330Z,13.45
2022-09-18T10:28:18.302Z,13.75
2022-09-18T10:31:04.650Z,15.32
2022-09-18T10:33:47.547Z,15.13
2022-09-18T10:36:33.278Z,13.77
2022-09-18T10:39:29.298Z,15.30
2022-09-18T10:42:06.239Z,13.48
2022-09-18T10:44:37.264Z,13.15
2022-09-18T10:47:21.017Z,12.10
2022-09-18T10:50:06.365Z,11.57
2022-09-18T10:52:37.805Z,9.57
2022-09-18T10:55:19.533Z,10.98
2022-09-18T10:57:58.304Z,10.50
2022-09-18T11:00:25.969Z,11.10
2022-09-18T11:03:00.413Z,11.32
2022-09-18T11:05:37.265Z,10.98
2022-09-18T11:08:07.939Z,10.27
2022-09-18T11:10:37.730Z,10.20
2022-09-18T11:13:05.511Z,10.52
2022-09-18T11:15:53.378Z,9.25
2022-09-18T11:18:23.638Z,9.50
2022-09-18T11:20:52.861Z,10.05
2022-09-18T11:23:33.234Z,10.02
2022-09-18T11:26:19.523Z,9.25
2022-09-18T11:29:06.064Z,9.75
2022-09-18T11:31:40.296Z,8.20
2022-09-18T11:34:19.531Z,8.57
2022-09-18T11:36:48.775Z,8.77
2022-09-18T11:39:24.415Z,7.75
2022-09-18T11:41:53.307Z,8.00
2022-09-18T11:44:32.807Z,7.97
2022-09-18T11:47:04.698Z,3.85
2022-09-18T11:49:59.122Z,3.70
2022-09-18T11:52:31.165Z,3.38
2022-09-18T11:55:16.714Z,3.13
2022-09-18T11:57:48.682Z,6.63
2022-09-18T12:00:21.253Z,3.85
2022-09-18T12:03:18.080Z,4.10
2022-09-18T12:05:55.547Z,3.90
2022-09-18T12:08:53.311Z,6.85
2022-09-18T12:11:36.467Z,5.88
2022-09-18T12:14:08.963Z,4.90
2022-09-18T12:16:41.337Z,4.65
2022-09-18T12:19:19.327Z,5.35
2022-09-18T12:21:58.765Z,5.88
2022-09-18T12:24:25.897Z,5.75
2022-09-18T12:27:06.021Z,5.95
2022-09-18T12:29:53.702Z,5.45
2022-09-18T12:32:53.274Z,5.38
2022-09-18T12:35:36.783Z,4.72
2022-09-18T12:38:46.157Z,6.65
2022-09-18T12:41:18.738Z,8.70
2022-09-18T12:44:06.177Z,6.28
2022-09-18T12:46:56.902Z,6.70
2022-09-18T12:49:38.723Z,6.93
2022-09-18T12:53:00.324Z,5.57
2022-09-18T12:56:06.011Z,5.47
2022-09-18T12:59:03.047Z,4.15
2022-09-18T13:01:51.619Z,3.83
2022-09-18T13:04:38.765Z,3.78
2022-09-18T13:07:33.386Z,3.10
2022-09-18T13:10:15.187Z,2.95
2022-09-18T13:12:52.838Z,2.50
2022-09-18T13:15:33.313Z,3.00
2022-09-18T13:18:39.678Z,2.20
2022-09-18T13:21:10.315Z,2.10
2022-09-18T13:23:39.704Z,1.80
2022-09-18T13:26:13.797Z,1.40
2022-09-18T13:28:44.248Z,1.48
2022-09-18T13:31:30.562Z,1.90
2022-09-18T13:34:04.590Z,1.50
2022-09-18T13:36:35.984Z,1.25
2022-09-18T13:39:16.246Z,1.38
2022-09-18T13:41:50.567Z,1.88
2022-09-18T13:44:22.728Z,1.67
2022-09-18T13:46:51.469Z,2.28
2022-09-18T13:49:30.764Z,1.40
2022-09-18T13:52:35.524Z,1.50
2022-09-18T13:55:26.755Z,1.30
2022-09-18T13:58:43.056Z,1.70
2022-09-18T14:01:10.543Z,1.67
2022-09-18T14:03:41.234Z,1.70
2022-09-18T14:06:36.435Z,1.73
2022-09-18T14:09:25.235Z,1.60
2022-09-18T14:11:52.516Z,1.83
2022-09-18T14:14:23.039Z,1.75
2022-09-18T14:16:50.887Z,2.00
2022-09-18T14:19:32.325Z,2.30
2022-09-18T14:22:00.429Z,2.83
2022-09-18T14:24:49.229Z,2.47
2022-09-18T14:27:31.651Z,2.60
2022-09-18T14:30:02.492Z,3.30
2022-09-18T14:32:29.817Z,2.35
2022-09-18T14:35:22.279Z,2.83
2022-09-18T14:37:49.302Z,2.40
2022-09-18T14:40:22.080Z,2.70
2022-09-18T14:42:49.562Z,2.85
2022-09-18T14:45:29.912Z,2.83
2022-09-18T14:47:58.128Z,2.83
2022-09-18T14:50:26.825Z,3.22
2022-09-18T14:52:56.040Z,2.88
2022-09-18T14:55:30.320Z,3.05
2022-09-18T14:58:07.421Z,2.65
2022-09-18T15:00:36.222Z,2.75
2022-09-18T15:03:20.790Z,2.72
2022-09-18T15:05:50.895Z,2.88
2022-09-18T15:08:26.379Z,2.85
2022-09-18T15:10:57.145Z,4.30
2022-09-18T15:13:25.231Z,3.00
2022-09-18T15:16:01.083Z,4.80
2022-09-18T15:18:29.699Z,3.03
2022-09-18T15:20:59.191Z,2.90
2022-09-18T15:23:32.849Z,2.58
2022-09-18T15:26:02.623Z,2.55
2022-09-18T15:28:35.330Z,3.50
2022-09-18T15:31:05.066Z,6.20
2022-09-18T15:33:33.714Z,3.30
2022-09-18T15:36:02.628Z,2.85
2022-09-18T15:38:42.332Z,3.65
2022-09-18T15:41:21.483Z,2.70
2022-09-18T15:43:50.530Z,3.30
2022-09-18T15:46:30.822Z,2.65
2022-09-18T15:49:03.322Z,2.63
2022-09-18T15:51:34.501Z,2.20
2022-09-18T15:54:10.534Z,3.10
2022-09-18T15:56:40.540Z,2.63
2022-09-18T15:59:17.702Z,2.25
2022-09-18T16:01:48.582Z,2.70
2022-09-18T16:04:22.801Z,2.50
2022-09-18T16:07:01.791Z,2.35
2022-09-18T16:09:46.110Z,4.28
2022-09-18T16:12:29.805Z,5.70
2022-09-18T16:15:22.140Z,3.78
2022-09-18T16:17:49.302Z,3.72
2022-09-18T16:20:28.621Z,4.28
2022-09-18T16:23:26.964Z,5.60
2022-09-18T16:26:07.695Z,3.75
2022-09-18T16:28:45.083Z,3.78
2022-09-18T16:31:14.586Z,3.47
2022-09-18T16:33:55.598Z,2.35
2022-09-18T16:36:30.544Z,2.00
2022-09-18T16:38:59.058Z,2.83
2022-09-18T16:41:26.079Z,2.05
2022-09-18T16:43:53.954Z,2.35
2022-09-18T16:46:23.812Z,2.00
2022-09-18T16:48:51.788Z,2.13
2022-09-18T16:51:18.667Z,2.25
2022-09-18T16:53:45.921Z,2.20
2022-09-18T16:56:15.538Z,2.13
2022-09-18T16:58:43.150Z,2.28
2022-09-18T17:01:10.292Z,2.45
2022-09-18T17:03:37.108Z,2.47
2022-09-18T17:06:04.379Z,2.22
2022-09-18T17:08:31.216Z,4.25
2022-09-18T17:10:58.121Z,3.58
2022-09-18T17:13:25.435Z,3.72
2022-09-18T17:15:52.378Z,4.55
2022-09-18T17:18:19.288Z,3.30
2022-09-18T17:20:46.411Z,3.08
2022-09-18T17:23:13.536Z,3.10
2022-09-18T17:25:40.647Z,2.97
2022-09-18T17:41:36.738Z,3.03
2022-09-18T17:44:04.918Z,8.38
2022-09-18T17:46:32.024Z,3.70
2022-09-18T17:48:59.697Z,3.75
2022-09-18T17:51:28.946Z,3.47
2022-09-18T17:54:04.238Z,3.38
2022-09-18T17:56:33.067Z,3.25
2022-09-18T17:59:02.743Z,3.97
2022-09-18T18:01:30.163Z,3.55
2022-09-18T18:03:57.690Z,3.13
2022-09-18T18:06:24.894Z,3.15
2022-09-18T18:08:52.459Z,4.25
2022-09-18T18:11:25.300Z,12.73
2022-09-18T18:13:53.959Z,4.40
2022-09-18T18:16:23.594Z,6.50
2022-09-18T18:18:52.992Z,3.00
2022-09-18T18:21:20.383Z,3.28
2022-09-18T18:23:47.536Z,3.05
2022-09-18T18:26:14.535Z,3.88
2022-09-18T18:28:42.030Z,2.90
2022-09-18T18:31:13.692Z,2.65
2022-09-18T18:33:45.050Z,3.10
2022-09-18T18:36:13.953Z,3.30
2022-09-18T18:38:42.677Z,3.30
2022-09-18T18:41:12.174Z,3.25
2022-09-18T18:43:42.906Z,3.50
2022-09-18T18:46:12.865Z,10.75
2022-09-18T18:48:40.990Z,7.68
2022-09-18T18:51:14.297Z,9.00
2022-09-18T18:53:43.098Z,4.20
2022-09-18T18:56:15.263Z,3.80
2022-09-18T18:58:44.112Z,3.22
2022-09-18T19:01:18.363Z,3.50
2022-09-18T19:03:54.052Z,4.10
2022-09-18T19:06:21.621Z,4.28
2022-09-18T19:08:48.702Z,3.80
2022-09-18T19:11:18.792Z,3.60
2022-09-18T19:13:53.205Z,3.85
2022-09-18T19:16:20.485Z,3.80
2022-09-18T19:18:54.795Z,7.50
2022-09-18T19:21:22.648Z,5.75
2022-09-18T19:23:54.593Z,7.47
2022-09-18T19:26:22.967Z,5.07
2022-09-18T19:28:52.037Z,4.47
2022-09-18T19:31:19.970Z,3.50
2022-09-18T19:33:48.924Z,4.20
2022-09-18T19:36:15.956Z,4.40
2022-09-18T19:38:42.987Z,4.18
2022-09-18T19:41:46.555Z,5.70
2022-09-18T19:44:19.188Z,4.30
2022-09-18T19:46:48.196Z,4.25
2022-09-18T19:49:18.234Z,5.28
2022-09-18T19:51:45.889Z,6.18
2022-09-18T19:54:13.306Z,5.15
2022-09-18T19:56:48.412Z,5.95
2022-09-18T19:59:16.418Z,6.53
2022-09-18T20:01:43.994Z,7.60
2022-09-18T20:04:11.213Z,10.07
2022-09-18T20:06:40.513Z,5.60
2022-09-18T20:09:08.360Z,4.82
2022-09-18T20:11:35.447Z,4.63
2022-09-18T20:14:02.253Z,3.95
2022-09-18T20:16:29.393Z,3.65
2022-09-18T20:18:56.432Z,3.28
2022-09-18T20:21:24.136Z,3.35
2022-09-18T20:23:56.507Z,3.13
2022-09-18T20:26:23.539Z,2.78
2022-09-18T20:28:50.507Z,3.28
2022-09-18T20:31:17.948Z,3.92
2022-09-18T20:33:44.837Z,7.05
2022-09-18T20:36:12.525Z,10.85
2022-09-18T20:38:41.392Z,6.22
2022-09-18T20:41:13.966Z,5.60
2022-09-18T20:43:42.563Z,6.30
2022-09-18T20:46:17.862Z,4.35
2022-09-18T20:48:49.749Z,4.38
2022-09-18T20:51:18.356Z,4.22
2022-09-18T20:53:46.550Z,4.10
2022-09-18T20:56:15.616Z,3.58
2022-09-18T20:58:42.641Z,3.40
2022-09-18T21:01:13.569Z,3.45
2022-09-18T21:03:42.969Z,3.58
2022-09-18T21:06:22.331Z,3.20
2022-09-18T21:08:53.653Z,3.30
2022-09-18T21:11:28.746Z,3.33
2022-09-18T21:14:00.977Z,3.50
2022-09-18T21:16:30.193Z,3.72
2022-09-18T21:18:59.370Z,4.28
2022-09-18T21:21:30.916Z,4.63
2022-09-18T21:24:04.287Z,4.78
2022-09-18T21:26:36.611Z,4.13
2022-09-18T21:29:04.963Z,4.60
2022-09-18T21:31:35.579Z,6.55
2022-09-18T21:34:04.530Z,6.97
2022-09-18T21:36:33.655Z,5.90
2022-09-18T21:39:00.618Z,4.90
2022-09-18T21:41:27.387Z,5.47
2022-09-18T21:43:54.400Z,5.10
2022-09-18T21:46:22.476Z,5.65
2022-09-18T21:48:54.397Z,7.20
2022-09-18T21:51:21.556Z,4.38
2022-09-18T21:53:48.476Z,4.78
2022-09-18T21:56:18.004Z,3.65
2022-09-18T21:58:46.151Z,3.70
2022-09-18T22:01:20.811Z,3.13
2022-09-18T22:03:54.985Z,3.58
2022-09-18T22:06:43.688Z,3.53
2022-09-18T22:09:21.712Z,3.72
2022-09-18T22:11:49.955Z,3.45
2022-09-18T22:14:19.706Z,3.83
2022-09-18T22:16:48.265Z,4.32
2022-09-18T22:19:16.479Z,3.63
2022-09-18T22:21:46.560Z,4.80
2022-09-18T22:24:17.842Z,4.68
2022-09-18T22:26:51.787Z,6.65
2022-09-18T22:29:21.570Z,5.70
2022-09-18T22:31:49.589Z,5.03
2022-09-18T22:34:19.956Z,6.50
2022-09-18T22:36:47.695Z,8.55
2022-09-18T22:39:16.184Z,4.90
2022-09-18T22:41:43.937Z,6.80
2022-09-18T22:44:11.419Z,6.53
2022-09-18T22:46:40.982Z,5.32
2022-09-18T22:49:11.296Z,5.57
2022-09-18T22:51:39.505Z,7.32
2022-09-18T22:54:09.833Z,5.00
2022-09-18T22:56:42.667Z,5.13
2022-09-18T22:59:11.725Z,7.68
2022-09-18T23:01:42.639Z,5.40
2022-09-18T23:04:09.943Z,6.10
2022-09-18T23:06:37.043Z,4.03
2022-09-18T23:09:04.758Z,5.35
2022-09-18T23:11:33.455Z,4.93
2022-09-18T23:14:03.443Z,5.22
2022-09-18T23:16:32.237Z,4.18
2022-09-18T23:19:03.616Z,5.93
2022-09-18T23:21:33.071Z,7.68
2022-09-18T23:24:04.903Z,7.43
2022-09-18T23:26:36.775Z,5.00
2022-09-18T23:29:06.907Z,5.82
2022-09-18T23:31:36.171Z,4.90
2022-09-18T23:34:09.411Z,8.38
2022-09-18T23:36:39.536Z,4.57
2022-09-18T23:39:18.520Z,4.43
2022-09-18T23:41:46.064Z,6.00
2022-09-18T23:44:15.626Z,6.68
2022-09-18T23:46:43.396Z,5.43
2022-09-18T23:49:12.272Z,5.15
2022-09-18T23:51:48.825Z,5.18
2022-09-18T23:54:17.864Z,4.68
2022-09-18T23:56:45.024Z,4.05
2022-09-18T23:59:12.656Z,4.18
